Estación de El Cardal INIA

Ultimos registro cada 15 minutos 55
Estación Fecha / Hora Temperatura Humedad Lluvia Velocidad Dirección Radiación Presion
55 El Cardal INIA 02-05-2026 13:30 8,5 80,1 0 0,1 113 454 1011
54 El Cardal INIA 02-05-2026 13:15 7,3 85,2 0 0,2 32 291 1012
53 El Cardal INIA 02-05-2026 13:00 6,8 85,6 0 0,6 91 536 1012
52 El Cardal INIA 02-05-2026 12:45 6,3 94,3 0 0,8 86 358 1013
51 El Cardal INIA 02-05-2026 12:30 6,3 96,5 0 0 72 442 1013
50 El Cardal INIA 02-05-2026 12:15 5,4 100 0 0 0 395 1013
49 El Cardal INIA 02-05-2026 12:00 5 98,3 0 0 0 401 1014
48 El Cardal INIA 02-05-2026 11:45 4,2 99,4 0 0 268 352 1014
47 El Cardal INIA 02-05-2026 11:30 3,7 100 0 0 0 292 1014
46 El Cardal INIA 02-05-2026 11:15 3,3 100 0 0 0 266 1014
45 El Cardal INIA 02-05-2026 11:00 2,7 100 0 0 0 243 1014
44 El Cardal INIA 02-05-2026 10:45 2,3 100 0 0 0 237 1014
43 El Cardal INIA 02-05-2026 10:30 1,6 100 0 0 0 170 1015
42 El Cardal INIA 02-05-2026 10:15 1,4 100 0 0 0 141 1015
41 El Cardal INIA 02-05-2026 10:00 1,3 100 0 0 0 152 1014
40 El Cardal INIA 02-05-2026 09:45 1,1 100 0 0 0 124 1015
39 El Cardal INIA 02-05-2026 09:30 0,9 100 0 0 0 142 1015
38 El Cardal INIA 02-05-2026 09:15 0,6 100 0 0 0 106 1015
37 El Cardal INIA 02-05-2026 09:00 0,5 100 0 0 0 76 1015
36 El Cardal INIA 02-05-2026 08:45 0,7 100 0 0 0 46 1016
35 El Cardal INIA 02-05-2026 08:30 0,5 100 0,1 0 0 34 1015
34 El Cardal INIA 02-05-2026 08:15 0,4 100 0 0 0 20 1016
33 El Cardal INIA 02-05-2026 08:00 0,4 100 0,1 0 0 9 1016
32 El Cardal INIA 02-05-2026 07:45 0,3 100 0 0 0 2 1016
31 El Cardal INIA 02-05-2026 07:30 0,2 100 0 0 0 0 1016
30 El Cardal INIA 02-05-2026 07:15 0 100 0 0 0 0 1016
29 El Cardal INIA 02-05-2026 07:00 -0,2 100 0 0 0 0 1016
28 El Cardal INIA 02-05-2026 06:45 -0,3 100 0 0 0 0 1016
27 El Cardal INIA 02-05-2026 06:30 -0,4 100 0 0 0 0 1017
26 El Cardal INIA 02-05-2026 06:15 -0,5 100 0 0 0 0 1017
25 El Cardal INIA 02-05-2026 06:00 -0,5 100 0 0 0 0 1017
24 El Cardal INIA 02-05-2026 05:45 -0,3 100 0 0 0 0 1017
23 El Cardal INIA 02-05-2026 05:30 -0,4 100 0 0 0 0 1017
22 El Cardal INIA 02-05-2026 05:15 -0,2 100 0 0 0 0 1017
21 El Cardal INIA 02-05-2026 05:00 -0,4 100 0 0 0 0 1017
20 El Cardal INIA 02-05-2026 04:45 -0,5 100 0 0 0 0 1017
19 El Cardal INIA 02-05-2026 04:30 -0,3 100 0 0 0 0 1017
18 El Cardal INIA 02-05-2026 04:15 -0,1 100 0 0 0 0 1018
17 El Cardal INIA 02-05-2026 04:00 -0,1 100 0 0 0 0 1018
16 El Cardal INIA 02-05-2026 03:45 -0,3 100 0 0 0 0 1018
15 El Cardal INIA 02-05-2026 03:30 -0,4 100 0 0 0 0 1018
14 El Cardal INIA 02-05-2026 03:15 -0,8 100 0 0 0 0 1018
13 El Cardal INIA 02-05-2026 03:00 -0,1 100 0 0 0 0 1018
12 El Cardal INIA 02-05-2026 02:45 0,2 100 0 0 0 0 1019
11 El Cardal INIA 02-05-2026 02:30 0,2 100 0 0 0 0 1019
10 El Cardal INIA 02-05-2026 02:15 0,4 100 0 0 0 0 1019
9 El Cardal INIA 02-05-2026 02:00 0,9 100 0 0,3 90 0 1019
8 El Cardal INIA 02-05-2026 01:45 1,1 100 0 0 0 0 1019
7 El Cardal INIA 02-05-2026 01:30 1,4 99,8 0 0 0 0 1019
6 El Cardal INIA 02-05-2026 01:15 1,7 99,6 0 0 0 0 1019
5 El Cardal INIA 02-05-2026 01:00 1,6 99,7 0 0 0 0 1019
4 El Cardal INIA 02-05-2026 00:45 1,7 99,5 0 0,5 95 0 1019
3 El Cardal INIA 02-05-2026 00:30 3,2 97,9 0 0 0 0 1019
2 El Cardal INIA 02-05-2026 00:15 3,1 99,3 0 0 0 0 1019
1 El Cardal INIA 02-05-2026 00:00 2,8 99,1 0 0 0 0 1019